createdAt,value
2023-01-12T00:01:59.068Z,101007.22
2023-01-12T00:04:26.753Z,100998.84
2023-01-12T00:06:54.889Z,101014.47
2023-01-12T00:09:22.625Z,101017.28
2023-01-12T00:11:50.385Z,101022.88
2023-01-12T00:14:20.344Z,101027.63
2023-01-12T01:02:13.367Z,100967.22
2023-01-12T01:04:41.318Z,100971.66
2023-01-12T01:07:09.142Z,100972.50
2023-01-12T01:09:36.863Z,100989.28
2023-01-12T01:12:04.516Z,100995.69
2023-01-12T01:14:32.213Z,100994.88
2023-01-12T02:00:54.144Z,100919.13
2023-01-12T02:03:22.337Z,100905.13
2023-01-12T02:05:50.411Z,100905.94
2023-01-12T02:08:19.187Z,100902.78
2023-01-12T02:10:46.788Z,100908.38
2023-01-12T02:13:31.915Z,100908.38
2023-01-12T03:02:57.017Z,100865.94
2023-01-12T03:05:27.252Z,100860.34
2023-01-12T03:07:55.195Z,100858.72
2023-01-12T03:10:34.309Z,100857.09
2023-01-12T03:13:06.081Z,100848.72
2023-01-12T04:02:24.204Z,100830.38
2023-01-12T04:04:51.882Z,100822.47
2023-01-12T04:07:19.486Z,100818.47
2023-01-12T04:09:47.093Z,100811.25
2023-01-12T04:12:13.731Z,100825.69
2023-01-12T04:14:41.698Z,100815.69
2023-01-12T04:53:25.180Z,100787.97
2023-01-12T04:55:52.870Z,100787.97
2023-01-12T04:58:20.517Z,100785.19
2023-01-12T05:00:48.250Z,100789.59
2023-01-12T05:03:16.090Z,100791.59
2023-01-12T05:05:43.720Z,100790.41
2023-01-12T05:08:28.955Z,100780.75
2023-01-12T05:10:58.308Z,100782.38
2023-01-12T05:13:26.275Z,100784.75
2023-01-12T05:21:47.425Z,100770.66
2023-01-12T05:24:15.037Z,100761.28
2023-01-12T05:26:43.991Z,100756.03
2023-01-12T05:29:12.136Z,100761.28
2023-01-12T05:31:40.318Z,100772.47
2023-01-12T05:34:08.142Z,100758.94
2023-01-12T05:36:35.728Z,100766.16
2023-01-12T05:39:03.372Z,100767.75
2023-01-12T05:41:30.962Z,100766.16
2023-01-12T05:43:58.957Z,100764.63
2023-01-12T05:46:27.223Z,100762.16
2023-01-12T05:48:55.391Z,100762.16
2023-01-12T05:51:23.138Z,100752.16
2023-01-12T05:53:50.711Z,100757.84
2023-01-12T05:56:18.777Z,100753.97
2023-01-12T05:58:49.756Z,100752.78
2023-01-12T06:01:18.745Z,100754.41
2023-01-12T06:03:49.056Z,100736.00
2023-01-12T06:06:16.730Z,100748.44
2023-01-12T06:08:44.343Z,100736.91
2023-01-12T06:11:32.260Z,100737.72
2023-01-12T06:13:58.898Z,100746.91
2023-01-12T06:31:08.061Z,100723.72
2023-01-12T06:33:35.730Z,100716.13
2023-01-12T06:36:03.373Z,100721.72
2023-01-12T06:38:31.405Z,100712.53
2023-01-12T06:41:02.094Z,100715.31
2023-01-12T06:43:29.708Z,100711.72
2023-01-12T06:45:57.623Z,100710.53
2023-01-12T06:48:26.880Z,100706.47
2023-01-12T06:51:07.021Z,100707.28
2023-01-12T06:53:34.629Z,100701.69
2023-01-12T06:56:02.223Z,100699.19
2023-01-12T06:58:29.819Z,100708.75
2023-01-12T07:01:01.474Z,100698.00
2023-01-12T07:03:30.538Z,100700.81
2023-01-12T07:05:58.927Z,100694.75
2023-01-12T07:08:26.642Z,100698.34
2023-01-12T07:10:54.380Z,100702.44
2023-01-12T07:13:22.036Z,100693.59
2023-01-12T07:15:49.696Z,100693.59
2023-01-12T07:18:17.668Z,100687.53
2023-01-12T07:20:48.650Z,100692.75
2023-01-12T07:23:16.223Z,100679.97
2023-01-12T07:25:44.031Z,100680.34
2023-01-12T07:28:11.841Z,100676.81
2023-01-12T07:30:39.488Z,100683.22
2023-01-12T07:33:07.411Z,100675.97
2023-01-12T07:35:35.015Z,100675.97
2023-01-12T07:38:03.935Z,100669.56
2023-01-12T07:40:31.552Z,100663.97
2023-01-12T07:42:59.595Z,100668.06
2023-01-12T07:45:27.295Z,100656.91
2023-01-12T07:47:54.942Z,100656.19
2023-01-12T07:50:22.529Z,100649.41
2023-01-12T07:52:50.306Z,100653.84
2023-01-12T07:55:19.734Z,100652.22
2023-01-12T07:57:54.226Z,100648.19
2023-01-12T08:06:07.043Z,100639.84
2023-01-12T08:08:34.691Z,100644.28
2023-01-12T08:11:04.189Z,100640.31
2023-01-12T08:13:31.768Z,100635.50
2023-01-12T08:16:02.862Z,100648.31
2023-01-12T08:18:31.488Z,100636.75
2023-01-12T08:20:59.509Z,100635.59
2023-01-12T08:23:27.731Z,100645.16
2023-01-12T08:25:56.526Z,100641.19
2023-01-12T08:28:26.147Z,100631.63
2023-01-12T08:30:53.700Z,100632.44
2023-01-12T08:33:21.326Z,100630.81
2023-01-12T08:35:48.934Z,100624.41
2023-01-12T08:38:16.530Z,100621.22
2023-01-12T08:41:01.650Z,100624.41
2023-01-12T08:43:48.335Z,100623.56
2023-01-12T08:46:15.979Z,100612.03
2023-01-12T08:48:43.860Z,100620.44
2023-01-12T08:51:11.453Z,100615.63
2023-01-12T08:53:39.052Z,100616.00
2023-01-12T08:56:07.263Z,100605.97
2023-01-12T08:58:36.220Z,100613.13
2023-01-12T09:01:07.770Z,100602.75
2023-01-12T09:03:35.611Z,100607.44
2023-01-12T09:06:09.331Z,100601.84
2023-01-12T09:08:36.939Z,100597.88
2023-01-12T09:11:04.713Z,100592.75
2023-01-12T09:13:33.284Z,100592.75
2023-01-12T09:16:12.384Z,100584.78
2023-01-12T09:18:40.720Z,100582.78
2023-01-12T09:21:08.921Z,100579.19
2023-01-12T09:23:36.566Z,100587.56
2023-01-12T09:26:04.997Z,100590.81
2023-01-12T09:28:32.642Z,100574.75
2023-01-12T09:31:05.258Z,100569.16
2023-01-12T09:33:32.978Z,100576.38
2023-01-12T09:36:01.001Z,100565.66
2023-01-12T09:38:28.594Z,100559.59
2023-01-12T09:40:56.890Z,100550.00
2023-01-12T09:43:42.090Z,100557.25
2023-01-12T09:46:33.095Z,100551.66
2023-01-12T09:49:00.742Z,100546.06
2023-01-12T09:51:29.402Z,100542.06
2023-01-12T09:53:57.147Z,100538.91
2023-01-12T09:56:27.074Z,100522.09
2023-01-12T09:59:08.450Z,100534.09
2023-01-12T10:01:37.502Z,100514.91
2023-01-12T10:04:05.403Z,100523.22
2023-01-12T10:06:33.306Z,100528.44
2023-01-12T10:09:01.258Z,100521.31
2023-01-12T10:11:29.643Z,100514.09
2023-01-12T10:14:02.738Z,100505.69
2023-01-12T10:16:32.483Z,100512.47
2023-01-12T10:19:02.283Z,100512.03
2023-01-12T10:21:30.044Z,100506.88
2023-01-12T10:23:57.678Z,100504.50
2023-01-12T10:26:25.614Z,100496.13
2023-01-12T10:28:55.015Z,100499.66
2023-01-12T10:31:23.683Z,100501.28
2023-01-12T10:34:06.925Z,100492.91
2023-01-12T10:36:34.726Z,100506.88
2023-01-12T10:39:03.553Z,100489.22
2023-01-12T10:41:31.337Z,100481.16
2023-01-12T10:44:13.649Z,100494.72
2023-01-12T10:46:41.276Z,100493.03
2023-01-12T10:49:17.610Z,100491.84
2023-01-12T10:51:52.281Z,100480.75
2023-01-12T10:54:20.285Z,100474.75
2023-01-12T10:56:54.493Z,100465.13
2023-01-12T10:59:23.093Z,100444.38
2023-01-12T11:01:51.292Z,100450.03
2023-01-12T11:04:22.142Z,100450.09
2023-01-12T11:07:02.785Z,100451.72
2023-01-12T11:09:31.724Z,100440.88
2023-01-12T11:11:59.975Z,100442.06
2023-01-12T11:14:28.952Z,100444.44
2023-01-12T11:16:57.976Z,100425.97
2023-01-12T11:19:27.470Z,100435.97
2023-01-12T11:21:55.517Z,100424.84
2023-01-12T11:24:29.360Z,100434.88
2023-01-12T11:26:57.141Z,100425.91
2023-01-12T11:29:30.218Z,100423.56
2023-01-12T11:31:58.451Z,100414.72
2023-01-12T11:34:29.295Z,100404.28
2023-01-12T11:37:02.244Z,100415.47
2023-01-12T11:39:29.999Z,100408.25
2023-01-12T11:42:15.781Z,100397.94
2023-01-12T11:44:44.590Z,100395.94
2023-01-12T11:47:12.476Z,100400.28
2023-01-12T11:49:42.471Z,100395.44
2023-01-12T11:52:10.162Z,100396.63
2023-01-12T11:54:37.847Z,100395.75
2023-01-12T11:57:24.139Z,100399.72
2023-01-12T11:59:55.015Z,100390.44
2023-01-12T12:02:26.583Z,100389.34
2023-01-12T12:04:56.951Z,100397.81
2023-01-12T12:07:31.738Z,100380.94
2023-01-12T12:10:01.835Z,100384.13
2023-01-12T12:12:31.734Z,100378.59
2023-01-12T12:15:05.583Z,100384.69
2023-01-12T12:17:35.856Z,100376.72
2023-01-12T12:20:07.322Z,100382.63
2023-01-12T12:22:38.379Z,100378.59
2023-01-12T12:25:16.595Z,100389.72
2023-01-12T12:27:48.765Z,100379.25
2023-01-12T12:30:25.946Z,100385.31
2023-01-12T12:32:54.570Z,100388.13
2023-01-12T12:35:30.140Z,100378.84
2023-01-12T12:38:01.031Z,100373.16
2023-01-12T12:40:55.182Z,100368.03
2023-01-12T12:43:41.491Z,100379.22
2023-01-12T12:46:10.604Z,100381.22
2023-01-12T12:48:39.863Z,100387.22
2023-01-12T12:51:09.894Z,100381.56
2023-01-12T12:53:38.897Z,100375.94
2023-01-12T12:56:08.583Z,100368.41
2023-01-12T12:58:41.132Z,100382.44
2023-01-12T13:01:27.974Z,100377.22
2023-01-12T13:03:55.657Z,100376.81
2023-01-12T13:06:25.229Z,100374.44
2023-01-12T13:08:53.215Z,100356.47
2023-01-12T13:11:20.971Z,100380.09
2023-01-12T13:13:58.621Z,100377.66
2023-01-12T13:16:41.242Z,100364.84
2023-01-12T13:19:13.486Z,100383.25
2023-01-12T13:21:56.373Z,100374.00
2023-01-12T13:24:27.655Z,100386.81
2023-01-12T13:26:57.723Z,100379.59
2023-01-12T13:29:41.201Z,100389.16
2023-01-12T13:32:27.586Z,100359.56
2023-01-12T13:34:55.324Z,100363.97
2023-01-12T13:37:25.275Z,100389.59
2023-01-12T13:39:53.558Z,100370.03
2023-01-12T13:42:38.954Z,100384.44
2023-01-12T13:45:10.440Z,100368.06
2023-01-12T13:47:38.147Z,100385.19
2023-01-12T13:50:06.099Z,100375.16
2023-01-12T13:52:37.067Z,100392.75
2023-01-12T13:55:05.912Z,100391.59
2023-01-12T13:57:33.543Z,100390.78
2023-01-12T14:00:04.570Z,100391.94
2023-01-12T14:02:39.755Z,100380.03
2023-01-12T14:05:12.820Z,100386.44
2023-01-12T14:07:44.626Z,100378.41
2023-01-12T14:10:19.049Z,100387.53
2023-01-12T14:12:53.483Z,100381.50
2023-01-12T14:15:42.163Z,100375.03
2023-01-12T14:18:10.473Z,100385.94
2023-01-12T14:20:45.238Z,100391.50
2023-01-12T14:23:23.955Z,100382.00
2023-01-12T14:26:07.827Z,100379.25
2023-01-12T14:28:35.661Z,100382.50
2023-01-12T14:31:03.372Z,100378.53
2023-01-12T14:33:33.634Z,100364.13
2023-01-12T14:36:03.559Z,100372.88
2023-01-12T14:38:34.164Z,100382.44
2023-01-12T14:41:02.829Z,100376.47
2023-01-12T14:43:48.818Z,100365.28
2023-01-12T14:46:27.936Z,100370.53
2023-01-12T14:48:56.966Z,100372.13
2023-01-12T14:51:25.639Z,100375.34
2023-01-12T14:53:57.789Z,100381.75
2023-01-12T14:56:26.368Z,100376.13
2023-01-12T14:58:53.954Z,100372.06
2023-01-12T15:04:16.516Z,100378.53
2023-01-12T15:06:44.235Z,100377.72
2023-01-12T15:09:25.238Z,100388.91
2023-01-12T15:11:52.871Z,100382.50
2023-01-12T15:14:21.603Z,100372.94
2023-01-12T15:17:06.488Z,100380.16
2023-01-12T15:19:51.797Z,100377.81
2023-01-12T15:22:36.717Z,100384.13
2023-01-12T15:25:26.443Z,100382.50
2023-01-12T15:27:54.088Z,100390.53
2023-01-12T15:30:21.739Z,100389.72
2023-01-12T15:32:49.428Z,100387.34
2023-01-12T15:35:17.680Z,100396.19
2023-01-12T15:37:45.414Z,100391.34
2023-01-12T15:40:15.116Z,100384.13
2023-01-12T15:42:42.865Z,100380.91
2023-01-12T15:45:15.098Z,100384.13
2023-01-12T15:47:42.729Z,100398.53
2023-01-12T15:50:10.822Z,100396.63
2023-01-12T15:52:38.460Z,100392.28
2023-01-12T15:55:07.449Z,100416.28
2023-01-12T15:57:37.778Z,100384.13
2023-01-12T16:00:05.812Z,100398.59
2023-01-12T16:02:36.478Z,100404.28
2023-01-12T16:05:04.382Z,100401.84
2023-01-12T16:07:32.369Z,100407.81
2023-01-12T16:10:00.025Z,100399.72
2023-01-12T16:12:28.057Z,100402.53
2023-01-12T16:14:58.638Z,100393.03
2023-01-12T16:17:26.463Z,100395.00
2023-01-12T16:19:54.186Z,100396.19
2023-01-12T16:22:22.277Z,100411.38
2023-01-12T16:24:50.245Z,100400.19
2023-01-12T16:27:17.957Z,100397.81
2023-01-12T16:29:45.919Z,100399.03
2023-01-12T16:32:15.224Z,100399.50
2023-01-12T16:34:42.834Z,100400.91
2023-01-12T16:37:11.916Z,100397.84
2023-01-12T16:39:39.617Z,100406.69
2023-01-12T16:42:07.251Z,100405.19
2023-01-12T16:44:37.317Z,100391.28
2023-01-12T16:47:05.217Z,100410.50
2023-01-12T16:49:35.935Z,100400.91
2023-01-12T16:52:04.140Z,100396.13
2023-01-12T16:54:33.315Z,100391.34
2023-01-12T16:57:00.962Z,100399.00
2023-01-12T16:59:29.471Z,100389.78
2023-01-12T17:01:57.242Z,100393.03
2023-01-12T17:04:25.055Z,100395.44
2023-01-12T17:06:54.190Z,100390.16
2023-01-12T17:09:21.858Z,100392.94
2023-01-12T17:11:50.490Z,100389.72
2023-01-12T17:14:24.330Z,100386.91
2023-01-12T17:16:52.269Z,100384.94
2023-01-12T17:19:20.019Z,100384.56
2023-01-12T17:21:48.361Z,100388.19
2023-01-12T17:24:20.109Z,100387.34
2023-01-12T17:26:49.654Z,100388.13
2023-01-12T17:29:17.347Z,100391.34
2023-01-12T17:31:45.048Z,100398.53
2023-01-12T17:34:13.286Z,100393.69
2023-01-12T17:36:40.867Z,100395.31
2023-01-12T17:39:08.467Z,100401.34
2023-01-12T17:41:55.023Z,100400.19
2023-01-12T17:44:22.642Z,100396.63
2023-01-12T17:46:50.271Z,100400.28
2023-01-12T17:49:18.446Z,100396.25
2023-01-12T17:51:46.089Z,100395.09
2023-01-12T17:54:13.981Z,100393.91
2023-01-12T17:56:43.005Z,100393.09
2023-01-12T17:59:12.446Z,100379.91
2023-01-12T18:01:41.698Z,100387.50
2023-01-12T18:04:10.109Z,100382.63
2023-01-12T18:06:37.783Z,100377.03
2023-01-12T18:09:05.468Z,100376.31
2023-01-12T18:11:33.370Z,100390.72
2023-01-12T18:14:02.461Z,100376.31
2023-01-12T18:16:30.107Z,100389.91
2023-01-12T18:18:57.780Z,100369.53
2023-01-12T18:21:25.726Z,100373.88
2023-01-12T18:23:53.304Z,100374.69
2023-01-12T18:26:21.644Z,100373.06
2023-01-12T18:28:49.209Z,100369.09
2023-01-12T18:31:18.841Z,100367.91
2023-01-12T18:33:47.582Z,100363.56
2023-01-12T18:36:15.970Z,100361.94
2023-01-12T18:38:43.570Z,100361.13
2023-01-12T18:41:28.885Z,100347.56
2023-01-12T18:43:56.492Z,100354.78
2023-01-12T18:46:49.598Z,100351.97
2023-01-12T18:49:19.735Z,100352.75
2023-01-12T18:52:04.974Z,100347.53
2023-01-12T18:54:32.847Z,100342.75
2023-01-12T18:57:00.383Z,100344.34
2023-01-12T18:59:29.016Z,100341.97
2023-01-12T19:01:58.096Z,100349.19
2023-01-12T19:04:37.583Z,100344.34
2023-01-12T19:07:05.267Z,100352.31
2023-01-12T19:09:35.037Z,100345.97
2023-01-12T19:12:02.731Z,100336.66
2023-01-12T19:14:47.938Z,100338.75
2023-01-12T19:17:29.763Z,100339.19
2023-01-12T19:19:57.736Z,100340.38
2023-01-12T19:22:43.017Z,100335.53
2023-01-12T19:25:29.526Z,100342.75
2023-01-12T19:28:15.710Z,100343.47
2023-01-12T19:30:43.313Z,100348.25
2023-01-12T19:33:12.272Z,100335.16
2023-01-12T19:35:41.704Z,100341.97
2023-01-12T19:38:09.402Z,100337.16
2023-01-12T19:40:44.533Z,100341.13
2023-01-12T19:43:12.820Z,100345.97
2023-01-12T19:45:40.757Z,100341.97
2023-01-12T19:48:08.508Z,100336.38
2023-01-12T19:50:37.569Z,100334.78
2023-01-12T19:53:05.402Z,100335.88
2023-01-12T19:55:33.143Z,100334.34
2023-01-12T19:58:01.026Z,100329.19
2023-01-12T20:00:28.634Z,100330.78
2023-01-12T20:02:56.216Z,100336.38
2023-01-12T20:05:24.309Z,100321.97
2023-01-12T20:07:53.496Z,100332.28
2023-01-12T20:10:21.301Z,100333.09
2023-01-12T20:12:49.509Z,100331.56
2023-01-12T20:15:18.106Z,100331.56
2023-01-12T20:17:45.931Z,100343.59
2023-01-12T20:20:13.649Z,100336.84
2023-01-12T20:22:41.268Z,100323.59
2023-01-12T20:25:10.415Z,100332.41
2023-01-12T20:27:38.123Z,100322.84
2023-01-12T20:30:06.323Z,100330.84
2023-01-12T20:32:35.607Z,100324.44
2023-01-12T20:35:03.716Z,100322.06
2023-01-12T20:37:31.262Z,100330.03
2023-01-12T20:39:58.876Z,100327.63
2023-01-12T20:42:29.246Z,100318.84
2023-01-12T20:44:57.623Z,100334.03
2023-01-12T20:47:25.983Z,100320.41
2023-01-12T20:49:53.635Z,100334.78
2023-01-12T20:52:21.427Z,100321.16
2023-01-12T20:54:49.185Z,100323.59
2023-01-12T20:57:16.825Z,100319.59
2023-01-12T20:59:45.767Z,100322.84
2023-01-12T21:02:15.642Z,100324.84
2023-01-12T21:04:43.244Z,100318.84
2023-01-12T21:07:10.862Z,100308.84
2023-01-12T21:09:38.434Z,100311.66
2023-01-12T21:12:06.276Z,100315.28
2023-01-12T21:14:34.140Z,100308.53
2023-01-12T21:17:03.283Z,100306.97
2023-01-12T21:19:30.879Z,100308.16
2023-01-12T21:21:58.498Z,100304.56
2023-01-12T21:24:26.473Z,100310.16
2023-01-12T21:26:54.890Z,100309.28
2023-01-12T21:29:22.546Z,100294.72
2023-01-12T21:31:50.470Z,100305.25
2023-01-12T21:34:19.447Z,100299.69
2023-01-12T21:36:47.123Z,100295.72
2023-01-12T21:39:14.754Z,100290.19
2023-01-12T21:41:59.679Z,100286.97
2023-01-12T21:44:27.580Z,100300.56
2023-01-12T21:46:55.542Z,100293.38
2023-01-12T21:49:24.789Z,100288.50
2023-01-12T21:51:52.441Z,100281.72
2023-01-12T21:54:20.326Z,100287.75
2023-01-12T21:56:47.959Z,100289.38
2023-01-12T21:59:15.722Z,100278.94
2023-01-12T22:01:43.335Z,100273.31
2023-01-12T22:04:11.087Z,100286.16
2023-01-12T22:06:40.096Z,100284.09
2023-01-12T22:09:07.661Z,100282.91
2023-01-12T22:11:35.497Z,100282.53
2023-01-12T22:14:03.130Z,100278.13
2023-01-12T22:16:30.749Z,100286.97
2023-01-12T22:18:58.439Z,100286.16
2023-01-12T22:21:26.131Z,100274.13
2023-01-12T22:23:55.134Z,100275.72
2023-01-12T22:26:22.761Z,100266.94
2023-01-12T22:28:50.634Z,100256.53
2023-01-12T22:31:18.824Z,100262.94
2023-01-12T22:33:46.843Z,100263.72
2023-01-12T22:36:14.658Z,100270.91
2023-01-12T22:38:42.530Z,100262.13
2023-01-12T22:41:12.119Z,100258.97
2023-01-12T22:43:41.367Z,100263.78
2023-01-12T22:46:15.049Z,100259.34
2023-01-12T22:48:42.693Z,100253.31
2023-01-12T22:51:10.308Z,100258.13
2023-01-12T22:53:37.968Z,100257.31
2023-01-12T22:56:05.976Z,100250.09
2023-01-12T22:58:35.212Z,100248.47
2023-01-12T23:01:03.317Z,100247.66
2023-01-12T23:03:31.376Z,100250.03
2023-01-12T23:05:59.131Z,100243.66
2023-01-12T23:08:26.850Z,100236.44
2023-01-12T23:11:02.308Z,100232.53
2023-01-12T23:13:30.097Z,100244.06
2023-01-12T23:16:01.413Z,100227.59
2023-01-12T23:18:29.504Z,100242.78
2023-01-12T23:21:00.606Z,100249.13
2023-01-12T23:23:28.317Z,100226.31
2023-01-12T23:25:55.972Z,100226.75
2023-01-12T23:28:23.598Z,100242.78
2023-01-12T23:30:51.382Z,100238.78
2023-01-12T23:33:20.628Z,100229.56
2023-01-12T23:35:48.301Z,100227.91
2023-01-12T23:38:16.434Z,100236.75
2023-01-12T23:40:44.225Z,100229.97
2023-01-12T23:43:11.892Z,100223.97
2023-01-12T23:45:39.582Z,100226.75
2023-01-12T23:48:08.147Z,100228.38
2023-01-12T23:50:37.207Z,100226.75
2023-01-12T23:53:04.891Z,100215.56
2023-01-12T23:55:32.457Z,100222.78
2023-01-12T23:58:00.321Z,100211.13
